Share

Jackson, KY (41339)

Carroll (KJKL) Elev 1381 ft | 37.59 °N, 83.31 °W | Change Station
Active Advisory: Special Statement

Current weather conditions updated 22 minutes ago

Clear
Clear
53 °F
Feels Like 53 °F
N
4
Wind Variable Wind from NE
Sunrise 6:52 AM
Sunset 8:13 PM
Moon Waning Gibbous

Today is forecast to be nearly the same temperature as yesterday.

Pressure 30.22 in
Visibility 10.0 miles
Clouds Clear
Dew Point 31 °F
Humidity 43%
Rainfall 0.00 in
Snow Depth Not available.
UV 0 out of 16
Pollen 10.00 out of 12
Air Quality Not available.
Flu Activity Sporadic
METAR KJKL 201053Z AUTO 05003KT 10SM CLR 12/M01 A3024 RMK AO2 SLP231 T01171006

More Conditions Fewer Conditions

Pressure 30.22 in
Visibility 10.0 miles
Clouds Clear
Dew Point 31 °F
Humidity 43%
Rainfall 0.00 in
Snow Depth Not available.
UV 0 out of 16
Pollen 10.00 out of 12
Air Quality Not available.
Flu Activity Sporadic
METAR KJKL 201053Z AUTO 05003KT 10SM CLR 12/M01 A3024 RMK AO2 SLP231 T01171006

More Conditions Fewer Conditions

10-Day Weather Forecast

Almanac

Astronomy

Apr. 20, 2014 Rise Set
Actual Time 6:52 AM EDT 8:13 PM EDT
Civil Twilight 6:24 AM EDT 8:41 PM EDT
Nautical Twilight 5:52 AM EDT 9:13 PM EDT
Astronomical Twilight 5:17 AM EDT 9:48 PM EDT
Moon 12:50 AM EDT 11:13 AM EDT
Length of Visible Light 14h 16m
Length of Day
13h 21m
Tomorrow will be 2m 14s longer.
Waning Gibbous, 71% of the Moon is Illuminated
Today
Waning Gibbous
Apr 22
Last Quarter
Apr 29
New
May 6
First Quarter
May 14
Full

Today's Extremes

State Highs State Lows

Community

  • Easter Greetings
    Easter Greetings
  • Sunny day at the coast-Cape Arago Lighthouse
    Sunny day at the coast-Cape Arago Lighthouse
  • Cherry Blossoms
    Cherry Blossoms
  • White-Crowned Sparrow
    White-Crowned Sparrow
  • New Day
    New Day

WunderPhotos

Upload Photos

1,703,140 photos uploaded!

WunderBlogs® & News

Nearby

Snow Depth

Station Depth Elevation
No new snow has been reported.

Coastal Water Temperatures

Place Temperature
No Stations Reporting

Earthquake Activity

City Distance Mag. Time & Date
No recent earthquake activity has been reported nearby.
Minimum magnitude displayed is 2.5.

Nearby Weather Stations

Station Location Temp. Windchill Dew Point Humidity Wind Precip. Elev Updated Type
RAWS JACKSON CO AP KY, Jackson, KY 53 °F - 31 °F 42% ESE  at  2 mph 0.00 in / hr 1388 ft 6:15 AM EDT MADIS
Talbert, KY 41.8 °F 42 °F 37 °F 83% North  at  0.0 mph 0.00 in / hr 994 ft 7:15 AM EDT Normal
RAWS KOOMER KY, Pine Ridge, KY 51 °F - 30 °F 45% NE  at  8 mph 0.00 in / hr 1299 ft 6:09 AM EDT MADIS

Show More Stations Show Fewer Stations

What do you think?

We're not finished. Please let us know what you like, what you don't like, and what you are still missing.